createdAt,value
2024-03-11T00:00:47.805Z,5.80
2024-03-11T00:03:22.274Z,8.02
2024-03-11T00:05:56.964Z,8.52
2024-03-11T00:08:32.546Z,8.57
2024-03-11T00:11:07.684Z,9.95
2024-03-11T00:13:41.310Z,10.00
2024-03-11T00:16:17.427Z,4.70
2024-03-11T00:18:51.420Z,9.45
2024-03-11T00:21:25.155Z,5.47
2024-03-11T00:23:59.645Z,3.60
2024-03-11T00:26:34.565Z,5.03
2024-03-11T00:29:08.166Z,7.32
2024-03-11T00:31:42.150Z,6.28
2024-03-11T00:34:16.155Z,5.07
2024-03-11T00:36:50.599Z,8.70
2024-03-11T00:39:24.249Z,5.50
2024-03-11T00:41:59.130Z,7.43
2024-03-11T00:44:32.756Z,5.07
2024-03-11T00:47:07.727Z,29.08
2024-03-11T00:49:41.327Z,18.73
2024-03-11T00:52:15.408Z,22.05
2024-03-11T00:54:48.944Z,36.97
2024-03-11T00:57:26.253Z,106.25
2024-03-11T00:59:59.815Z,24.30
2024-03-11T01:02:33.774Z,27.13
2024-03-11T01:05:09.775Z,29.63
2024-03-11T01:07:47.212Z,30.80
2024-03-11T01:10:21.207Z,31.15
2024-03-11T01:12:56.126Z,31.77
2024-03-11T01:15:29.920Z,34.38
2024-03-11T01:18:05.390Z,56.40
2024-03-11T01:20:39.912Z,65.97
2024-03-11T01:23:13.588Z,40.00
2024-03-11T01:25:47.300Z,26.88
2024-03-11T01:28:22.678Z,26.73
2024-03-11T01:30:56.223Z,19.50
2024-03-11T01:33:30.136Z,17.92
2024-03-11T01:36:03.715Z,15.35
2024-03-11T01:38:37.297Z,11.07
2024-03-11T01:41:12.924Z,22.02
2024-03-11T01:43:47.863Z,17.17
2024-03-11T01:46:21.465Z,16.05
2024-03-11T01:48:55.667Z,12.50
2024-03-11T01:51:30.253Z,9.90
2024-03-11T01:54:04.656Z,11.45
2024-03-11T01:56:38.837Z,7.45
2024-03-11T01:59:14.633Z,6.68
2024-03-11T02:01:48.774Z,7.63
2024-03-11T02:04:22.281Z,9.68
2024-03-11T02:06:55.924Z,8.32
2024-03-11T02:09:29.480Z,8.98
2024-03-11T02:12:03.091Z,8.23
2024-03-11T02:14:38.113Z,6.68
2024-03-11T02:17:11.848Z,5.95
2024-03-11T02:19:45.485Z,11.30
2024-03-11T02:22:19.173Z,9.05
2024-03-11T02:24:54.588Z,6.20
2024-03-11T02:27:28.175Z,8.00
2024-03-11T02:30:01.979Z,7.97
2024-03-11T02:32:35.673Z,9.50
2024-03-11T02:35:12.363Z,9.00
2024-03-11T02:37:48.429Z,9.43
2024-03-11T02:40:27.939Z,6.80
2024-03-11T02:45:35.730Z,6.82
2024-03-11T02:48:09.670Z,14.68
2024-03-11T02:50:43.305Z,20.08
2024-03-11T02:53:17.420Z,10.68
2024-03-11T02:55:52.381Z,12.15
2024-03-11T02:58:25.952Z,10.60
2024-03-11T03:00:59.533Z,8.73
2024-03-11T03:03:33.917Z,16.42
2024-03-11T03:06:08.208Z,7.97
2024-03-11T03:08:41.864Z,12.90
2024-03-11T03:11:17.841Z,11.48
2024-03-11T03:13:51.656Z,8.77
2024-03-11T03:16:25.418Z,12.63
2024-03-11T03:18:58.954Z,11.77
2024-03-11T03:21:32.501Z,11.02
2024-03-11T03:24:06.422Z,13.20
2024-03-11T03:26:41.394Z,13.45
2024-03-11T03:29:16.564Z,12.00
2024-03-11T03:31:50.160Z,7.20
2024-03-11T03:34:24.623Z,9.45
2024-03-11T03:36:58.196Z,9.75
2024-03-11T03:39:32.136Z,7.50
2024-03-11T03:42:07.621Z,9.20
2024-03-11T03:44:41.354Z,8.88
2024-03-11T03:47:15.373Z,13.68
2024-03-11T03:49:48.922Z,10.93
2024-03-11T03:52:22.569Z,11.00
2024-03-11T03:54:56.153Z,10.95
2024-03-11T03:57:31.026Z,6.75
2024-03-11T04:00:06.357Z,11.25
2024-03-11T04:02:41.057Z,8.20
2024-03-11T04:05:15.247Z,7.93
2024-03-11T04:07:48.989Z,6.82
2024-03-11T04:10:25.165Z,7.80
2024-03-11T04:13:00.200Z,10.32
2024-03-11T04:15:34.100Z,11.25
2024-03-11T04:18:07.784Z,10.45
2024-03-11T04:20:41.849Z,7.47
2024-03-11T04:23:15.508Z,8.05
2024-03-11T04:25:50.637Z,8.25
2024-03-11T04:28:29.676Z,5.10
2024-03-11T04:31:03.514Z,8.57
2024-03-11T04:33:37.133Z,11.43
2024-03-11T04:36:11.032Z,7.18
2024-03-11T04:38:45.632Z,11.13
2024-03-11T04:41:20.178Z,14.07
2024-03-11T04:43:55.378Z,12.43
2024-03-11T04:46:29.069Z,12.75
2024-03-11T04:49:02.844Z,9.27
2024-03-11T04:51:36.411Z,15.02
2024-03-11T04:54:10.414Z,17.05
2024-03-11T04:56:44.598Z,17.83
2024-03-11T04:59:19.856Z,19.08
2024-03-11T05:01:53.708Z,18.95
2024-03-11T05:04:27.522Z,18.88
2024-03-11T05:07:01.034Z,18.75
2024-03-11T05:09:34.567Z,23.60
2024-03-11T05:12:08.954Z,16.65
2024-03-11T05:14:43.880Z,16.10
2024-03-11T05:17:17.479Z,20.00
2024-03-11T05:19:52.492Z,17.13
2024-03-11T05:22:26.045Z,16.52
2024-03-11T05:24:59.581Z,14.27
2024-03-11T05:27:33.106Z,15.82
2024-03-11T05:30:09.684Z,19.60
2024-03-11T05:32:43.386Z,19.90
2024-03-11T05:35:19.965Z,20.48
2024-03-11T05:37:56.600Z,17.42
2024-03-11T05:40:38.924Z,17.83
2024-03-11T05:43:18.759Z,21.58
2024-03-11T05:45:58.909Z,23.40
2024-03-11T05:48:33.297Z,21.30
2024-03-11T05:51:07.092Z,18.70
2024-03-11T05:53:42.144Z,19.55
2024-03-11T05:56:20.985Z,15.30
2024-03-11T05:58:54.571Z,18.23
2024-03-11T06:01:29.452Z,18.67
2024-03-11T06:04:03.837Z,20.35
2024-03-11T06:06:37.377Z,18.10
2024-03-11T06:09:12.688Z,19.88
2024-03-11T06:11:47.593Z,19.17
2024-03-11T06:14:21.230Z,23.85
2024-03-11T06:16:56.152Z,18.52
2024-03-11T06:19:29.699Z,18.25
2024-03-11T06:22:03.979Z,19.30
2024-03-11T06:24:38.679Z,15.88
2024-03-11T06:27:12.914Z,19.58
2024-03-11T06:29:46.934Z,18.67
2024-03-11T06:32:21.972Z,15.90
2024-03-11T06:34:55.902Z,16.08
2024-03-11T06:37:29.454Z,12.98
2024-03-11T06:40:04.311Z,14.75
2024-03-11T06:42:38.102Z,11.90
2024-03-11T06:45:11.690Z,13.18
2024-03-11T06:47:46.766Z,12.43
2024-03-11T06:50:21.635Z,12.77
2024-03-11T06:52:55.522Z,12.98
2024-03-11T06:55:29.242Z,15.85
2024-03-11T06:58:02.835Z,16.77
2024-03-11T07:00:36.407Z,17.52
2024-03-11T07:03:11.985Z,11.55
2024-03-11T07:05:45.645Z,8.55
2024-03-11T07:08:19.265Z,12.85
2024-03-11T07:10:52.944Z,8.77
2024-03-11T07:13:27.095Z,9.57
2024-03-11T07:16:01.202Z,9.23
2024-03-11T07:18:37.828Z,11.25
2024-03-11T07:21:11.918Z,9.50
2024-03-11T07:23:49.416Z,10.18
2024-03-11T07:26:23.149Z,9.30
2024-03-11T07:28:56.666Z,5.13
2024-03-11T07:31:30.229Z,10.30
2024-03-11T07:34:05.521Z,7.63
2024-03-11T07:36:39.060Z,7.55
2024-03-11T07:39:12.615Z,5.95
2024-03-11T07:41:46.800Z,6.95
2024-03-11T07:44:20.406Z,8.18
2024-03-11T07:46:54.024Z,8.75
2024-03-11T07:49:30.740Z,4.55
2024-03-11T07:52:05.118Z,10.63
2024-03-11T07:54:38.830Z,5.18
2024-03-11T07:57:12.632Z,7.20
2024-03-11T07:59:46.202Z,11.32
2024-03-11T08:02:20.362Z,5.05
2024-03-11T08:04:56.883Z,11.05
2024-03-11T08:07:33.393Z,10.38
2024-03-11T08:10:10.602Z,5.20
2024-03-11T08:12:45.734Z,7.13
2024-03-11T08:15:21.921Z,4.38
2024-03-11T08:17:56.940Z,7.45
2024-03-11T08:20:32.506Z,6.00
2024-03-11T08:23:07.026Z,6.35
2024-03-11T08:25:46.099Z,8.25
2024-03-11T08:28:21.495Z,8.35
2024-03-11T08:30:55.685Z,4.85
2024-03-11T08:33:29.651Z,7.88
2024-03-11T08:36:06.162Z,6.47
2024-03-11T08:38:39.741Z,8.68
2024-03-11T08:41:15.460Z,5.20
2024-03-11T08:43:49.010Z,4.97
2024-03-11T08:46:22.572Z,5.65
2024-03-11T08:48:56.136Z,9.50
2024-03-11T08:51:31.032Z,8.25
2024-03-11T08:54:04.612Z,6.90
2024-03-11T08:56:38.435Z,7.35
2024-03-11T08:59:13.675Z,6.28
2024-03-11T09:01:47.312Z,8.00
2024-03-11T09:04:20.842Z,9.13
2024-03-11T09:06:57.641Z,8.50
2024-03-11T09:09:31.238Z,8.20
2024-03-11T09:12:06.452Z,7.88
2024-03-11T09:14:40.871Z,12.93
2024-03-11T09:17:14.488Z,10.90
2024-03-11T09:19:48.895Z,6.65
2024-03-11T09:22:23.912Z,7.38
2024-03-11T09:24:57.817Z,10.50
2024-03-11T09:27:31.437Z,6.60
2024-03-11T09:30:05.877Z,5.90
2024-03-11T09:32:40.996Z,5.00
2024-03-11T09:35:17.730Z,5.35
2024-03-11T09:37:53.510Z,5.93
2024-03-11T09:40:29.946Z,7.68
2024-03-11T09:43:12.844Z,9.07
2024-03-11T09:45:48.858Z,7.28
2024-03-11T09:48:24.477Z,7.38
2024-03-11T09:50:58.975Z,4.93
2024-03-11T09:53:35.449Z,6.03
2024-03-11T09:56:10.239Z,10.75
2024-03-11T09:58:48.084Z,7.18
2024-03-11T10:01:25.099Z,6.32
2024-03-11T10:04:00.131Z,4.97
2024-03-11T10:06:34.779Z,5.60
2024-03-11T10:09:20.352Z,6.95
2024-03-11T10:12:04.302Z,5.28
2024-03-11T10:14:40.203Z,10.68
2024-03-11T10:17:22.283Z,3.63
2024-03-11T10:19:57.405Z,6.50
2024-03-11T10:22:32.526Z,7.07
2024-03-11T10:25:09.738Z,3.53
2024-03-11T10:27:44.489Z,5.78
2024-03-11T10:30:23.066Z,5.85
2024-03-11T10:32:57.295Z,6.10
2024-03-11T10:35:35.134Z,5.40
2024-03-11T10:38:12.043Z,10.35
2024-03-11T10:40:47.206Z,5.40
2024-03-11T10:43:22.744Z,6.20
2024-03-11T10:46:00.140Z,5.93
2024-03-11T10:48:35.793Z,5.90
2024-03-11T10:51:10.462Z,6.18
2024-03-11T10:53:44.309Z,6.20
2024-03-11T10:56:25.001Z,11.13
2024-03-11T10:58:58.566Z,6.00
2024-03-11T11:01:35.405Z,4.43
2024-03-11T11:04:15.054Z,5.80
2024-03-11T11:06:53.058Z,3.58
2024-03-11T11:09:28.665Z,3.88
2024-03-11T11:12:05.679Z,5.10
2024-03-11T11:14:41.359Z,10.43
2024-03-11T11:17:18.397Z,7.05
2024-03-11T11:19:53.636Z,5.85
2024-03-11T11:22:27.670Z,6.85
2024-03-11T11:25:02.347Z,7.60
2024-03-11T11:27:38.542Z,4.65
2024-03-11T11:30:18.372Z,9.00
2024-03-11T11:32:52.742Z,5.45
2024-03-11T11:35:37.163Z,9.45
2024-03-11T11:38:30.453Z,5.18
2024-03-11T11:41:25.174Z,6.57
2024-03-11T11:44:00.039Z,14.65
2024-03-11T11:46:43.408Z,5.90
2024-03-11T11:49:18.615Z,5.47
2024-03-11T11:51:53.232Z,5.60
2024-03-11T11:54:35.888Z,7.03
2024-03-11T11:57:15.164Z,5.38
2024-03-11T11:59:59.878Z,8.07
2024-03-11T12:02:36.625Z,10.63
2024-03-11T12:05:16.419Z,7.53
2024-03-11T12:07:49.980Z,7.07
2024-03-11T12:10:25.190Z,4.28
2024-03-11T12:12:57.906Z,10.15
2024-03-11T12:15:35.239Z,13.95
2024-03-11T12:18:14.744Z,8.35
2024-03-11T12:20:48.368Z,5.95
2024-03-11T12:23:24.038Z,7.95
2024-03-11T12:25:58.205Z,5.70
2024-03-11T12:28:31.952Z,10.63
2024-03-11T12:31:07.434Z,9.48
2024-03-11T12:33:42.008Z,20.33
2024-03-11T12:36:15.944Z,7.40
2024-03-11T12:38:51.776Z,9.02
2024-03-11T12:41:42.085Z,6.65
2024-03-11T12:44:18.169Z,12.18
2024-03-11T12:46:55.306Z,5.60
2024-03-11T12:49:29.872Z,6.03
2024-03-11T12:52:05.174Z,7.65
2024-03-11T12:54:39.430Z,8.20
2024-03-11T12:57:18.116Z,10.63
2024-03-11T13:00:00.643Z,12.88
2024-03-11T13:02:37.312Z,7.63
2024-03-11T13:05:17.968Z,5.85
2024-03-11T13:07:52.505Z,7.78
2024-03-11T13:10:26.075Z,6.30
2024-03-11T13:12:59.740Z,6.55
2024-03-11T13:15:36.186Z,7.25
2024-03-11T13:18:13.318Z,10.90
2024-03-11T13:20:47.072Z,9.68
2024-03-11T13:23:22.855Z,12.27
2024-03-11T13:25:56.421Z,5.35
2024-03-11T13:28:30.685Z,6.82
2024-03-11T13:31:10.202Z,10.13
2024-03-11T13:33:47.379Z,7.28
2024-03-11T13:36:21.236Z,8.05
2024-03-11T13:38:55.237Z,6.55
2024-03-11T13:41:28.876Z,14.27
2024-03-11T13:44:11.576Z,6.60
2024-03-11T13:46:47.971Z,6.18
2024-03-11T13:49:23.373Z,5.97
2024-03-11T13:51:57.366Z,13.18
2024-03-11T13:54:31.061Z,8.32
2024-03-11T13:57:06.891Z,7.20
2024-03-11T13:59:42.265Z,12.68
2024-03-11T14:02:15.978Z,12.85
2024-03-11T14:04:50.846Z,4.63
2024-03-11T14:07:25.837Z,9.15
2024-03-11T14:10:00.398Z,7.28
2024-03-11T14:12:37.359Z,8.85
2024-03-11T14:15:12.436Z,10.70
2024-03-11T14:17:48.585Z,12.05
2024-03-11T14:20:25.697Z,14.85
2024-03-11T14:23:00.092Z,10.88
2024-03-11T14:25:34.292Z,6.72
2024-03-11T14:28:08.373Z,7.07
2024-03-11T14:30:42.365Z,7.43
2024-03-11T14:33:17.063Z,5.10
2024-03-11T14:35:52.442Z,6.72
2024-03-11T14:38:26.671Z,6.50
2024-03-11T14:41:01.140Z,9.80
2024-03-11T14:43:34.770Z,14.98
2024-03-11T14:46:08.676Z,4.55
2024-03-11T14:48:47.877Z,5.78
2024-03-11T14:51:23.464Z,8.15
2024-03-11T14:53:57.530Z,11.63
2024-03-11T14:56:31.102Z,12.70
2024-03-11T14:59:04.693Z,8.70
2024-03-11T15:01:38.832Z,7.53
2024-03-11T15:04:12.801Z,5.22
2024-03-11T15:06:47.759Z,10.23
2024-03-11T15:09:22.409Z,16.42
2024-03-11T15:11:56.230Z,9.15
2024-03-11T15:14:30.226Z,10.38
2024-03-11T15:17:03.930Z,16.15
2024-03-11T15:19:37.804Z,10.65
2024-03-11T15:22:14.096Z,8.50
2024-03-11T15:24:47.801Z,9.63
2024-03-11T15:27:21.514Z,13.32
2024-03-11T15:29:55.073Z,6.18
2024-03-11T15:32:28.615Z,8.07
2024-03-11T15:35:03.337Z,12.45
2024-03-11T15:37:39.330Z,8.85
2024-03-11T15:40:13.549Z,12.10
2024-03-11T15:42:47.139Z,5.57
2024-03-11T15:45:20.829Z,7.28
2024-03-11T15:47:57.700Z,9.57
2024-03-11T15:50:33.838Z,14.88
2024-03-11T15:53:11.226Z,7.10
2024-03-11T15:55:47.108Z,6.20
2024-03-11T15:58:20.852Z,11.45
2024-03-11T16:00:54.401Z,13.38
2024-03-11T16:03:30.318Z,15.02
2024-03-11T16:06:03.879Z,8.73
2024-03-11T16:08:38.816Z,16.33
2024-03-11T16:11:14.485Z,20.35
2024-03-11T16:13:48.248Z,17.77
2024-03-11T16:16:22.276Z,20.33
2024-03-11T16:18:57.391Z,19.58
2024-03-11T16:21:32.101Z,21.42
2024-03-11T16:24:07.734Z,17.85
2024-03-11T16:26:41.832Z,19.20
2024-03-11T16:29:15.287Z,17.83
2024-03-11T16:31:48.824Z,22.98
2024-03-11T16:34:21.735Z,21.45
2024-03-11T16:36:55.503Z,19.45
2024-03-11T16:39:29.494Z,18.42
2024-03-11T16:42:03.137Z,14.75
2024-03-11T16:44:36.780Z,16.83
2024-03-11T16:47:10.560Z,19.10
2024-03-11T16:49:44.063Z,13.13
2024-03-11T16:52:20.345Z,22.17
2024-03-11T16:54:54.287Z,17.75
2024-03-11T16:57:28.559Z,17.77
2024-03-11T17:00:01.726Z,14.15
2024-03-11T17:02:35.450Z,30.63
2024-03-11T17:05:08.686Z,28.88
2024-03-11T17:07:45.449Z,25.92
2024-03-11T17:10:24.683Z,39.60
2024-03-11T17:13:02.330Z,32.55
2024-03-11T17:15:38.857Z,38.97
2024-03-11T17:18:13.625Z,21.67
2024-03-11T17:20:52.083Z,21.95
2024-03-11T17:23:27.420Z,30.45
2024-03-11T17:26:02.793Z,33.45
2024-03-11T17:28:35.851Z,19.95
2024-03-11T17:31:13.241Z,28.85
2024-03-11T17:33:48.629Z,42.08
2024-03-11T17:36:22.597Z,22.48
2024-03-11T17:38:57.222Z,42.13
2024-03-11T17:41:32.132Z,48.75
2024-03-11T17:44:04.965Z,35.00
2024-03-11T17:46:38.584Z,24.42
2024-03-11T17:49:12.336Z,48.40
2024-03-11T17:51:46.131Z,16.63
2024-03-11T17:54:19.734Z,19.33
2024-03-11T17:56:53.664Z,17.90
2024-03-11T17:59:27.576Z,22.90
2024-03-11T18:02:00.839Z,21.63
2024-03-11T18:04:34.918Z,19.42
2024-03-11T18:07:07.565Z,22.30
2024-03-11T18:09:42.882Z,19.30
2024-03-11T18:12:16.933Z,16.80
2024-03-11T18:14:51.117Z,18.42
2024-03-11T18:17:23.806Z,9.27
2024-03-11T18:19:57.365Z,8.65
2024-03-11T18:22:31.364Z,7.78
2024-03-11T18:25:05.360Z,8.32
2024-03-11T18:27:41.987Z,9.18
2024-03-11T18:30:18.177Z,5.55
2024-03-11T18:32:54.139Z,10.45
2024-03-11T18:35:28.571Z,9.80
2024-03-11T18:38:01.754Z,6.53
2024-03-11T18:40:35.821Z,7.63
2024-03-11T18:43:12.250Z,9.10
2024-03-11T18:45:46.806Z,14.57
2024-03-11T18:48:21.408Z,20.50
2024-03-11T18:50:55.205Z,22.02
2024-03-11T18:53:29.233Z,20.38
2024-03-11T18:56:03.566Z,15.80
2024-03-11T18:58:38.563Z,13.13
2024-03-11T19:01:12.425Z,9.52
2024-03-11T19:03:46.513Z,14.32
2024-03-11T19:06:20.351Z,16.83
2024-03-11T19:08:56.320Z,16.33
2024-03-11T19:11:30.700Z,16.92
2024-03-11T19:14:06.835Z,12.10
2024-03-11T19:16:41.065Z,12.45
2024-03-11T19:19:15.433Z,8.27
2024-03-11T19:21:49.447Z,4.88
2024-03-11T19:24:24.105Z,4.78
2024-03-11T19:27:03.165Z,8.55
2024-03-11T19:29:38.703Z,4.30
2024-03-11T19:32:13.676Z,6.70
2024-03-11T19:34:47.224Z,6.93
2024-03-11T19:38:00.099Z,8.57
2024-03-11T19:40:42.717Z,3.45
2024-03-11T19:43:34.851Z,5.43
2024-03-11T19:46:45.756Z,10.43
2024-03-11T19:49:51.054Z,7.40
2024-03-11T19:53:03.664Z,10.27
2024-03-11T19:56:03.816Z,6.50
2024-03-11T19:59:24.340Z,8.02
2024-03-11T20:02:25.390Z,7.25
2024-03-11T20:05:33.407Z,8.95
2024-03-11T20:08:31.492Z,11.60
2024-03-11T20:11:51.079Z,7.65
2024-03-11T20:14:47.125Z,7.57
2024-03-11T20:17:43.984Z,6.57
2024-03-11T20:20:51.142Z,9.82
2024-03-11T20:23:59.840Z,8.68
2024-03-11T20:26:40.879Z,12.57
2024-03-11T20:29:23.877Z,6.25
2024-03-11T20:32:02.981Z,8.00
2024-03-11T20:34:37.427Z,11.73
2024-03-11T20:37:13.391Z,4.57
2024-03-11T20:39:48.441Z,5.35
2024-03-11T20:42:22.060Z,5.35
2024-03-11T20:44:55.798Z,7.03
2024-03-11T20:47:29.460Z,6.30
2024-03-11T20:50:03.026Z,6.32
2024-03-11T20:52:39.352Z,8.25
2024-03-11T20:55:14.615Z,6.15
2024-03-11T20:57:48.169Z,8.00
2024-03-11T21:00:22.177Z,6.32
2024-03-11T21:02:56.495Z,5.13
2024-03-11T21:05:30.093Z,7.97
2024-03-11T21:08:09.956Z,9.20
2024-03-11T21:10:48.577Z,8.52
2024-03-11T21:13:22.168Z,6.30
2024-03-11T21:15:58.171Z,10.77
2024-03-11T21:18:32.311Z,4.25
2024-03-11T21:21:10.652Z,7.35
2024-03-11T21:23:53.554Z,9.13
2024-03-11T21:26:39.270Z,7.75
2024-03-11T21:29:13.213Z,9.80
2024-03-11T21:31:46.751Z,5.80
2024-03-11T21:34:21.027Z,8.15
2024-03-11T21:36:54.642Z,5.63
2024-03-11T21:39:28.552Z,8.82
2024-03-11T21:42:03.549Z,6.20
2024-03-11T21:44:37.285Z,9.68
2024-03-11T21:47:11.119Z,4.78
2024-03-11T21:49:44.677Z,7.60
2024-03-11T21:52:18.750Z,5.82
2024-03-11T21:54:52.520Z,4.80
2024-03-11T21:57:27.813Z,7.32
2024-03-11T22:00:02.305Z,5.43
2024-03-11T22:02:47.459Z,6.80
2024-03-11T22:05:21.151Z,3.15
2024-03-11T22:07:54.805Z,3.20
2024-03-11T22:10:28.488Z,3.35
2024-03-11T22:13:05.716Z,3.75
2024-03-11T22:15:40.097Z,8.45
2024-03-11T22:18:14.512Z,3.85
2024-03-11T22:20:48.206Z,4.88
2024-03-11T22:23:21.815Z,17.83
2024-03-11T22:25:55.521Z,11.98
2024-03-11T22:28:30.487Z,6.70
2024-03-11T22:31:07.252Z,10.05
2024-03-11T22:33:41.004Z,6.65
2024-03-11T22:36:14.647Z,4.40
2024-03-11T22:38:48.631Z,7.63
2024-03-11T22:41:29.117Z,11.75
2024-03-11T22:44:04.614Z,6.20
2024-03-11T22:46:41.892Z,5.18
2024-03-11T22:49:26.619Z,8.02
2024-03-11T22:52:01.169Z,5.05
2024-03-11T22:54:34.987Z,5.85
2024-03-11T22:57:09.902Z,7.75
2024-03-11T22:59:44.912Z,6.43
2024-03-11T23:02:19.399Z,7.68
2024-03-11T23:04:55.106Z,6.80
2024-03-11T23:07:29.214Z,6.65
2024-03-11T23:10:05.948Z,8.27
2024-03-11T23:12:42.480Z,8.55
2024-03-11T23:15:23.501Z,6.35
2024-03-11T23:17:57.157Z,10.68
2024-03-11T23:20:31.740Z,5.78
2024-03-11T23:23:06.253Z,2.45
2024-03-11T23:25:41.765Z,2.70
2024-03-11T23:28:16.296Z,3.15
2024-03-11T23:30:55.335Z,4.38
2024-03-11T23:33:29.196Z,2.35
2024-03-11T23:36:03.749Z,2.33
2024-03-11T23:38:37.870Z,2.92
2024-03-11T23:41:13.270Z,3.30
2024-03-11T23:43:48.167Z,2.03
2024-03-11T23:46:23.195Z,1.05
2024-03-11T23:48:57.582Z,0.77
2024-03-11T23:51:31.170Z,0.10
2024-03-11T23:54:07.431Z,1.15
2024-03-11T23:56:44.243Z,1.27
2024-03-11T23:59:19.927Z,2.30
